Time;durP1;ratioP1;P1;durP2;ratioP2;P2;SDS_P1;SDS_P2;PMS_P1;PMS_P2;Temp;Humidity;BMP_temperature;BMP_pressure;BME280_temperature;BME280_humidity;BME280_pressure;Samples;Min_cycle;Max_cycle;Signal;HPM_P1;HPM_P2
2023/02/04 09:03:16;;;;;;;0.70;0.70;;;;;;;6.68;85.03;100693.25;5130475;27;20923;-86
2023/02/04 09:05:46;;;;;;;1.03;0.77;;;;;;;7.57;76.58;100727.56;5129521;27;39052;-84
2023/02/04 09:08:14;;;;;;;1.00;0.90;;;;;;;8.61;74.44;100728.78;5112757;27;40828;-84
2023/02/04 09:10:42;;;;;;;3.07;1.17;;;;;;;9.69;70.67;100748.81;5111733;27;42920;-86
2023/02/04 09:13:10;;;;;;;2.20;0.80;;;;;;;10.25;62.03;100781.59;5114732;27;41314;-86
2023/02/04 09:15:38;;;;;;;0.77;0.70;;;;;;;10.79;58.07;100818.72;5114145;27;40325;-88
2023/02/04 09:18:13;;;;;;;2.40;0.90;;;;;;;11.19;55.05;100824.50;5113319;27;41615;-87
2023/02/04 09:20:43;;;;;;;1.33;0.80;;;;;;;11.19;55.60;100816.56;5112805;27;42926;-85
2023/02/04 09:23:11;;;;;;;0.77;0.70;;;;;;;11.15;56.01;100821.94;5112351;27;41154;-89
2023/02/04 09:25:39;;;;;;;0.97;0.70;;;;;;;10.89;55.99;100821.94;5112613;27;38932;-87
2023/02/04 09:28:08;;;;;;;0.97;0.80;;;;;;;10.63;55.81;100808.69;5113640;27;44567;-87
2023/02/04 09:30:36;;;;;;;2.20;0.90;;;;;;;10.44;55.81;100822.47;5112488;27;44961;-81
2023/02/04 09:33:04;;;;;;;1.13;0.80;;;;;;;10.23;55.54;100823.13;5115087;27;42517;-81
2023/02/04 09:35:32;;;;;;;2.23;0.73;;;;;;;10.04;56.26;100821.88;5116722;27;41059;-84
2023/02/04 09:38:02;;;;;;;0.70;0.70;;;;;;;10.01;56.54;100829.94;5112292;27;42548;-85
2023/02/04 09:40:33;;;;;;;1.03;0.70;;;;;;;9.85;56.49;100813.63;5146277;27;43170;-88
2023/02/04 09:43:04;;;;;;;1.30;1.10;;;;;;;9.81;55.70;100819.91;5112956;27;42244;-81
2023/02/04 09:45:35;;;;;;;0.90;0.80;;;;;;;9.99;55.80;100845.00;5112686;27;38856;-85
2023/02/04 09:48:05;;;;;;;0.73;0.67;;;;;;;9.82;54.84;100831.34;5113471;27;42475;-82
2023/02/04 09:50:33;;;;;;;0.90;0.90;;;;;;;10.07;55.94;100853.56;5129168;27;41929;-86
2023/02/04 09:53:05;;;;;;;0.93;0.70;;;;;;;10.15;54.62;100862.16;5131543;27;42123;-82
2023/02/04 09:55:36;;;;;;;0.80;0.80;;;;;;;10.10;54.68;100853.50;5117662;27;38923;-81
2023/02/04 09:58:11;;;;;;;0.90;0.70;;;;;;;10.25;55.25;100849.56;5115942;27;41450;-85
2023/02/04 10:00:39;;;;;;;0.80;0.80;;;;;;;10.26;52.89;100875.97;5114867;27;41921;-84
2023/02/04 10:03:14;;;;;;;0.90;0.90;;;;;;;10.35;53.06;100862.50;5131189;27;42319;-90
2023/02/04 10:05:41;;;;;;;1.30;1.20;;;;;;;10.58;52.22;100875.06;5114812;27;39001;-82
2023/02/04 10:08:15;;;;;;;1.10;0.80;;;;;;;10.60;51.96;100875.88;5148731;27;41743;-90
2023/02/04 10:10:44;;;;;;;1.03;0.83;;;;;;;10.64;52.54;100860.72;5113409;27;42163;-89
2023/02/04 10:13:18;;;;;;;1.60;1.00;;;;;;;10.79;53.04;100849.66;5124333;27;42221;-84
2023/02/04 10:15:48;;;;;;;1.03;0.93;;;;;;;10.89;52.41;100839.63;5099232;28;38547;-84
2023/02/04 10:18:23;;;;;;;1.17;1.00;;;;;;;11.30;51.81;100852.41;5116525;28;41993;-86
2023/02/04 10:20:52;;;;;;;1.60;1.33;;;;;;;11.71;51.29;100869.56;5098982;28;42626;-86
2023/02/04 10:23:21;;;;;;;1.60;1.17;;;;;;;11.77;48.42;100882.63;5098339;28;40918;-87
2023/02/04 10:25:49;;;;;;;1.30;0.93;;;;;;;11.67;49.34;100878.53;5097908;28;39012;-84
2023/02/04 10:28:17;;;;;;;1.73;1.20;;;;;;;11.45;49.28;100878.41;5098355;28;41750;-86
2023/02/04 10:30:45;;;;;;;2.40;1.30;;;;;;;11.43;50.07;100866.13;5131845;27;42793;-84
2023/02/04 10:33:16;;;;;;;0.83;0.77;;;;;;;11.66;48.70;100897.16;5098269;28;41423;-87
2023/02/04 10:35:46;;;;;;;0.90;0.90;;;;;;;11.63;49.86;100882.22;5098150;28;39842;-86
2023/02/04 10:38:14;;;;;;;1.40;1.30;;;;;;;11.52;48.14;100881.72;5098827;28;42154;-83
2023/02/04 10:40:45;;;;;;;2.43;0.90;;;;;;;11.77;48.84;100895.91;5098998;28;41660;-87
2023/02/04 10:43:16;;;;;;;1.50;0.70;;;;;;;11.94;48.42;100898.00;5098046;28;40643;-84
2023/02/04 10:45:46;;;;;;;1.27;0.87;;;;;;;12.25;48.60;100895.06;5097686;28;38909;-86
2023/02/04 10:48:17;;;;;;;2.07;0.80;;;;;;;12.62;50.47;100875.94;5097500;28;40819;-87
2023/02/04 10:50:46;;;;;;;0.80;0.80;;;;;;;12.50;48.67;100881.72;5097673;28;42965;-84
2023/02/04 10:56:04;;;;;;;1.00;1.00;;;;;;;12.38;49.82;100877.75;5118769;28;39878;-86
2023/02/04 10:58:33;;;;;;;1.07;0.90;;;;;;;12.30;50.17;100873.66;5118792;28;41934;-83
2023/02/04 11:01:01;;;;;;;1.23;1.00;;;;;;;12.15;48.97;100875.97;5118397;28;41556;-88
2023/02/04 11:03:31;;;;;;;0.90;0.90;;;;;;;12.13;48.66;100892.88;5119386;28;41167;-84
2023/02/04 11:06:00;;;;;;;1.30;0.90;;;;;;;11.96;48.75;100898.81;5107382;28;40150;-85
2023/02/04 11:08:32;;;;;;;1.57;1.00;;;;;;;11.66;49.62;100866.19;5098895;28;41031;-86
2023/02/04 11:11:02;;;;;;;1.17;0.73;;;;;;;11.80;49.87;100894.94;5099813;28;41704;-85
2023/02/04 11:13:42;;;;;;;1.83;0.90;;;;;;;11.63;49.92;100884.88;5115752;28;42217;-85
2023/02/04 11:16:24;;;;;;;1.87;0.70;;;;;;;11.61;49.52;100894.69;5098054;28;40014;-85
2023/02/04 11:18:54;;;;;;;1.00;0.80;;;;;;;11.38;48.82;100908.72;5131226;27;43460;-84
2023/02/04 11:21:26;;;;;;;0.80;0.70;;;;;;;11.32;50.54;100892.16;5096443;28;41521;-84
2023/02/04 11:24:06;;;;;;;1.03;0.80;;;;;;;11.41;51.15;100883.88;5097612;27;41575;-85
2023/02/04 11:26:36;;;;;;;1.83;1.00;;;;;;;11.40;50.80;100884.78;5096947;28;39426;-86
2023/02/04 11:29:28;;;;;;;0.80;0.80;;;;;;;11.42;51.17;100894.44;5096793;28;43208;-86
2023/02/04 11:31:59;;;;;;;0.80;0.80;;;;;;;11.47;51.30;100891.63;5113473;28;44952;-84
2023/02/04 11:34:43;;;;;;;0.97;0.80;;;;;;;11.47;50.53;100895.16;5096728;28;41139;-86
2023/02/04 11:37:19;;;;;;;0.83;0.83;;;;;;;11.41;49.22;100905.97;5131359;27;40358;-85
2023/02/04 11:39:49;;;;;;;0.90;0.90;;;;;;;11.29;49.08;100909.03;5113960;28;40740;-88
2023/02/04 11:42:21;;;;;;;0.70;0.70;;;;;;;11.21;50.17;100905.75;5096065;28;42165;-86
2023/02/04 11:44:53;;;;;;;0.90;0.90;;;;;;;11.15;50.94;100877.63;5096617;28;41251;-87
2023/02/04 11:47:23;;;;;;;0.80;0.80;;;;;;;11.25;50.93;100888.81;5096472;28;38860;-87
2023/02/04 11:49:56;;;;;;;1.93;0.93;;;;;;;11.26;50.87;100894.97;5096453;28;42451;-87
2023/02/04 11:52:24;;;;;;;1.77;1.20;;;;;;;11.24;49.61;100904.81;5096214;28;43287;-85
2023/02/04 11:54:54;;;;;;;1.50;0.97;;;;;;;11.21;49.42;100911.06;5096557;28;42357;-88
2023/02/04 11:57:22;;;;;;;0.97;0.97;;;;;;;11.11;49.66;100902.53;5095782;28;41008;-87
2023/02/04 11:59:52;;;;;;;0.87;0.87;;;;;;;11.16;50.65;100903.25;5096150;28;40657;-85
2023/02/04 12:02:21;;;;;;;0.70;0.70;;;;;;;11.19;51.11;100906.72;5095389;28;43860;-87
2023/02/04 12:04:54;;;;;;;1.13;0.90;;;;;;;11.08;51.02;100894.69;5096314;28;41442;-85
2023/02/04 12:07:26;;;;;;;1.37;1.00;;;;;;;11.09;50.37;100901.72;5096106;28;38883;-87
2023/02/04 12:09:55;;;;;;;5.03;1.27;;;;;;;11.20;50.28;100898.72;5095913;28;41842;-88
2023/02/04 12:12:28;;;;;;;7.30;1.77;;;;;;;11.57;49.49;100916.94;5095938;28;42074;-84
2023/02/04 12:15:16;;;;;;;8.77;1.70;;;;;;;11.82;47.65;100919.66;5095844;28;41532;-88
2023/02/04 12:17:47;;;;;;;1.07;0.90;;;;;;;11.70;47.17;100931.53;5095723;28;41803;-86
2023/02/04 12:20:15;;;;;;;0.83;0.60;;;;;;;11.57;48.43;100913.41;5095669;28;41730;-84
2023/02/04 12:22:43;;;;;;;1.47;0.90;;;;;;;11.46;47.63;100908.47;5095733;28;41931;-87
2023/02/04 12:25:15;;;;;;;0.70;0.70;;;;;;;11.54;47.58;100914.38;5129940;27;42444;-88
2023/02/04 12:27:43;;;;;;;1.40;1.07;;;;;;;11.72;47.94;100926.19;5095625;28;40272;-86
2023/02/04 12:30:14;;;;;;;1.57;1.27;;;;;;;12.20;48.86;100910.34;5095580;28;43335;-86
2023/02/04 12:32:42;;;;;;;2.37;0.90;;;;;;;12.62;48.24;100909.63;5095614;28;44289;-86
2023/02/04 12:35:10;;;;;;;1.13;0.87;;;;;;;12.63;45.77;100930.84;5096136;28;42137;-85
2023/02/04 12:37:37;;;;;;;1.23;0.80;;;;;;;12.78;45.43;100935.59;5112277;28;40118;-84
2023/02/04 12:40:07;;;;;;;0.53;0.53;;;;;;;12.96;46.00;100934.03;5095691;28;41376;-85
2023/02/04 12:42:35;;;;;;;1.27;1.00;;;;;;;12.71;46.32;100919.94;5096172;28;43038;-84
2023/02/04 12:45:02;;;;;;;0.80;0.80;;;;;;;12.76;47.46;100915.28;5095845;28;42662;-85
2023/02/04 12:47:32;;;;;;;0.83;0.83;;;;;;;12.86;46.69;100938.81;5112539;28;40425;-85
2023/02/04 12:49:59;;;;;;;1.10;1.00;;;;;;;12.74;47.44;100923.31;5095831;28;42014;-85
2023/02/04 12:52:28;;;;;;;1.63;0.97;;;;;;;12.88;45.85;100926.31;5095435;28;41849;-86
2023/02/04 12:54:55;;;;;;;1.03;0.80;;;;;;;12.97;44.83;100934.91;5095725;28;43821;-84
2023/02/04 12:57:23;;;;;;;1.40;0.90;;;;;;;14.13;43.93;100925.59;5095398;28;38985;-89
2023/02/04 12:59:51;;;;;;;1.60;1.00;;;;;;;17.00;41.34;100947.78;5112379;28;40826;-84
2023/02/04 13:02:18;;;;;;;0.80;0.80;;;;;;;19.64;38.33;100954.84;5094838;28;41718;-85
2023/02/04 13:04:48;;;;;;;0.77;0.70;;;;;;;22.36;34.12;100990.84;5094940;28;41202;-83
2023/02/04 13:07:15;;;;;;;1.40;0.97;;;;;;;24.35;32.58;100982.59;5095117;28;40459;-88
2023/02/04 13:09:44;;;;;;;0.80;0.80;;;;;;;25.91;28.71;100993.91;5095198;28;41713;-86
2023/02/04 13:12:12;;;;;;;1.17;0.77;;;;;;;25.62;26.85;101012.84;5129059;27;43147;-86
2023/02/04 13:14:40;;;;;;;0.80;0.80;;;;;;;25.02;28.00;101003.78;5129140;27;41184;-85
2023/02/04 13:17:09;;;;;;;1.03;0.70;;;;;;;23.34;30.02;100967.69;5094619;28;40189;-84
2023/02/04 13:19:36;;;;;;;1.33;0.70;;;;;;;21.90;30.78;100971.88;5129033;27;41681;-86
2023/02/04 13:22:06;;;;;;;0.50;0.50;;;;;;;20.27;33.17;100917.31;5094947;28;43651;-87
2023/02/04 13:24:34;;;;;;;1.23;0.70;;;;;;;19.33;34.12;100945.19;5095798;28;42257;-88
2023/02/04 13:27:03;;;;;;;0.80;0.60;;;;;;;18.30;33.83;100969.59;5095065;28;40403;-85
2023/02/04 13:29:32;;;;;;;0.87;0.70;;;;;;;17.42;35.65;100953.41;5095199;28;42237;-87
2023/02/04 13:31:59;;;;;;;0.60;0.60;;;;;;;16.48;36.06;100918.47;5095092;28;41601;-87
2023/02/04 13:34:27;;;;;;;0.70;0.70;;;;;;;15.86;36.73;100922.66;5129286;27;41478;-86
2023/02/04 13:36:56;;;;;;;0.43;0.43;;;;;;;15.49;37.88;100930.78;5094867;28;40035;-85
2023/02/04 13:39:25;;;;;;;1.20;0.80;;;;;;;15.07;38.08;100939.94;5095226;28;41995;-89
2023/02/04 13:41:53;;;;;;;1.90;0.80;;;;;;;14.59;39.07;100919.94;5094250;28;42407;-85
2023/02/04 13:44:21;;;;;;;0.83;0.70;;;;;;;14.27;39.97;100901.88;5095489;28;43435;-86
2023/02/04 13:46:48;;;;;;;1.00;0.90;;;;;;;14.23;40.11;100938.44;5095573;28;39054;-87
2023/02/04 13:49:16;;;;;;;1.40;0.90;;;;;;;14.08;40.89;100935.63;5098530;28;42183;-86
2023/02/04 13:51:44;;;;;;;0.70;0.70;;;;;;;13.83;42.08;100907.38;5098674;28;41662;-87
2023/02/04 13:54:12;;;;;;;0.80;0.70;;;;;;;13.79;41.15;100916.41;5133521;27;42894;-86
2023/02/04 13:56:41;;;;;;;0.70;0.70;;;;;;;13.68;41.17;100926.66;5098649;28;40299;-85
2023/02/04 13:59:10;;;;;;;0.97;0.90;;;;;;;13.58;41.70;100920.88;5098857;28;40982;-88
2023/02/04 14:01:37;;;;;;;0.80;0.80;;;;;;;13.09;41.51;100878.53;5097779;28;43070;-86
2023/02/04 14:04:05;;;;;;;1.03;1.03;;;;;;;13.15;42.42;100912.91;5099072;28;42791;-86
2023/02/04 14:06:37;;;;;;;1.10;1.00;;;;;;;12.93;42.32;100915.53;5115214;28;38906;-86
2023/02/04 14:09:04;;;;;;;2.40;0.90;;;;;;;12.84;42.61;100937.16;5081978;28;43145;-86
2023/02/04 14:11:33;;;;;;;1.10;1.00;;;;;;;12.50;42.84;100906.53;5097537;28;42895;-86
2023/02/04 14:14:02;;;;;;;0.70;0.70;;;;;;;12.33;43.61;100910.75;5098703;28;42142;-85
2023/02/04 14:16:30;;;;;;;1.53;1.10;;;;;;;12.30;44.52;100925.00;5097820;28;40428;-84
2023/02/04 14:18:58;;;;;;;0.93;0.77;;;;;;;12.41;44.32;100906.88;5133363;27;41569;-85
2023/02/04 14:21:25;;;;;;;0.87;0.80;;;;;;;12.59;42.22;100879.63;5098204;28;43120;-87
2023/02/04 14:23:53;;;;;;;1.00;0.90;;;;;;;12.81;41.96;100945.25;5098415;28;42167;-87
2023/02/04 14:26:21;;;;;;;3.07;0.80;;;;;;;12.63;42.57;100945.94;5098443;28;40059;-89
2023/02/04 14:28:49;;;;;;;1.40;1.30;;;;;;;12.46;43.36;100942.13;5098756;28;40975;-85
2023/02/04 14:31:19;;;;;;;1.10;1.10;;;;;;;12.18;43.62;100925.47;5098191;28;41718;-87
2023/02/04 14:33:48;;;;;;;0.83;0.83;;;;;;;12.00;43.69;100939.38;5098844;28;41359;-86
2023/02/04 14:36:16;;;;;;;1.20;0.80;;;;;;;11.57;44.31;100871.81;5099060;28;38443;-86
2023/02/04 14:38:43;;;;;;;1.30;0.90;;;;;;;11.68;44.48;100916.56;5099622;28;40664;-85
2023/02/04 14:41:15;;;;;;;1.10;1.00;;;;;;;11.49;44.83;100921.66;5100015;28;43062;-86
2023/02/04 14:43:43;;;;;;;0.90;0.90;;;;;;;11.32;45.47;100910.72;5099746;28;43266;-86
2023/02/04 14:46:11;;;;;;;0.83;0.83;;;;;;;11.27;46.26;100910.84;5100183;28;39292;-85
2023/02/04 14:48:40;;;;;;;0.77;0.77;;;;;;;11.02;46.44;100910.78;5100602;28;42174;-85
2023/02/04 14:51:09;;;;;;;0.67;0.67;;;;;;;10.84;47.25;100900.75;5099549;28;41853;-85
2023/02/04 14:53:37;;;;;;;1.03;0.90;;;;;;;10.74;47.60;100910.78;5098772;28;42743;-84
2023/02/04 14:56:05;;;;;;;0.80;0.80;;;;;;;10.67;46.54;100924.25;5097849;28;38836;-86
2023/02/04 14:58:33;;;;;;;1.00;1.00;;;;;;;10.50;47.09;100900.03;5097490;28;40749;-84
2023/02/04 15:01:00;;;;;;;2.00;0.90;;;;;;;10.48;47.92;100901.88;5096475;28;42178;-88
2023/02/04 15:03:28;;;;;;;0.90;0.90;;;;;;;10.40;48.26;100899.44;5097642;28;41811;-87
2023/02/04 15:05:58;;;;;;;1.50;1.17;;;;;;;10.28;47.87;100911.25;5097176;28;38879;-85
2023/02/04 15:08:26;;;;;;;1.53;1.33;;;;;;;10.04;48.28;100896.00;5097403;28;43424;-85
2023/02/04 15:10:54;;;;;;;1.83;1.40;;;;;;;10.00;48.97;100915.56;5113933;28;42914;-86
2023/02/04 15:13:21;;;;;;;1.30;1.20;;;;;;;9.76;49.00;100892.41;5097225;28;40767;-84
2023/02/04 15:15:49;;;;;;;1.53;1.30;;;;;;;9.66;49.38;100899.69;5096788;28;39090;-85
2023/02/04 15:18:17;;;;;;;1.40;1.30;;;;;;;9.40;49.84;100870.41;5131297;27;44081;-85
2023/02/04 15:20:46;;;;;;;1.27;1.17;;;;;;;9.29;50.00;100886.53;5097384;28;43249;-84
2023/02/04 15:23:16;;;;;;;1.70;1.00;;;;;;;9.07;50.43;100885.31;5099359;28;42343;-85
2023/02/04 15:25:44;;;;;;;1.83;1.00;;;;;;;8.83;50.97;100890.28;5116976;28;39793;-87
2023/02/04 15:28:12;;;;;;;1.27;1.07;;;;;;;8.69;51.66;100884.44;5096629;28;41809;-86
2023/02/04 15:30:41;;;;;;;1.10;0.87;;;;;;;8.61;52.39;100902.25;5097079;28;43652;-84
2023/02/04 15:33:10;;;;;;;1.40;1.30;;;;;;;8.42;52.45;100896.47;5096737;28;41269;-87
2023/02/04 15:35:37;;;;;;;1.77;1.50;;;;;;;8.35;52.52;100902.78;5096736;28;39323;-87
2023/02/04 15:38:05;;;;;;;1.70;1.33;;;;;;;8.37;52.68;100913.31;5113899;28;42786;-85
2023/02/04 15:40:35;;;;;;;1.80;1.60;;;;;;;8.44;52.88;100921.06;5096532;28;44162;-87
2023/02/04 15:43:03;;;;;;;1.93;1.40;;;;;;;8.35;53.06;100912.47;5131058;27;42300;-87
2023/02/04 15:45:31;;;;;;;2.57;1.57;;;;;;;8.14;53.55;100869.75;5096634;28;39844;-85
2023/02/04 15:47:59;;;;;;;1.67;1.40;;;;;;;8.33;53.10;100903.72;5113611;28;41734;-84
2023/02/04 15:50:27;;;;;;;1.63;1.53;;;;;;;8.38;53.23;100918.56;5096268;28;42887;-87
2023/02/04 15:52:56;;;;;;;1.43;1.33;;;;;;;8.20;53.73;100903.94;5096288;28;43501;-86
2023/02/04 15:55:24;;;;;;;2.43;1.60;;;;;;;8.27;53.71;100928.47;5097074;28;40231;-86
2023/02/04 15:57:54;;;;;;;1.70;1.40;;;;;;;8.15;53.81;100905.81;5096763;28;40455;-86
2023/02/04 16:00:22;;;;;;;1.73;1.40;;;;;;;8.00;53.73;100900.81;5096112;28;41612;-84
2023/02/04 16:02:50;;;;;;;1.30;1.13;;;;;;;8.18;53.72;100920.69;5096655;28;41415;-84
2023/02/04 16:05:19;;;;;;;2.63;1.60;;;;;;;8.00;54.05;100903.47;5130969;27;38955;-87
2023/02/04 16:07:50;;;;;;;1.90;1.67;;;;;;;7.88;53.96;100909.84;5096785;28;40987;-84
2023/02/04 16:10:19;;;;;;;1.53;1.33;;;;;;;7.75;54.47;100897.78;5095723;27;42990;-84
2023/02/04 16:12:47;;;;;;;2.20;1.97;;;;;;;7.73;54.68;100911.88;5095576;28;43618;-85
2023/02/04 16:15:17;;;;;;;1.70;1.60;;;;;;;7.68;54.92;100926.91;5096246;28;39051;-84
2023/02/04 16:17:45;;;;;;;3.63;1.40;;;;;;;7.47;55.00;100915.84;5095985;28;43135;-85
2023/02/04 16:20:13;;;;;;;2.50;1.70;;;;;;;7.12;55.31;100876.91;5095578;28;41834;-82
2023/02/04 16:22:43;;;;;;;3.00;1.73;;;;;;;7.35;55.66;100921.31;5096068;28;41094;-84
2023/02/04 16:25:20;;;;;;;1.57;1.47;;;;;;;7.31;55.87;100919.63;5096136;28;38715;-85
2023/02/04 16:27:48;;;;;;;3.37;2.00;;;;;;;7.05;55.71;100884.91;5095832;28;41959;-84
2023/02/04 16:30:19;;;;;;;2.33;1.83;;;;;;;7.40;55.85;100940.59;5095964;28;41672;-86
2023/02/04 16:32:47;;;;;;;2.93;1.77;;;;;;;7.24;55.56;100920.63;5096047;28;40950;-84
2023/02/04 16:35:14;;;;;;;2.73;2.10;;;;;;;7.25;55.87;100927.66;5096388;28;40401;-86
2023/02/04 16:37:42;;;;;;;1.93;1.53;;;;;;;7.22;55.91;100930.31;5096023;28;42016;-86
2023/02/04 16:40:12;;;;;;;2.93;2.00;;;;;;;7.14;55.99;100926.94;5095220;28;42643;-85
2023/02/04 16:42:40;;;;;;;2.13;1.93;;;;;;;7.21;55.91;100949.66;5129754;27;42325;-84
2023/02/04 16:45:09;;;;;;;1.60;1.50;;;;;;;7.13;56.00;100948.91;5112979;28;40315;-85
2023/02/04 16:47:39;;;;;;;2.03;1.67;;;;;;;7.09;56.21;100952.47;5095577;28;40714;-85
2023/02/04 16:50:07;;;;;;;2.67;2.07;;;;;;;7.00;56.17;100960.53;5094990;28;41698;-85
2023/02/04 16:52:35;;;;;;;2.00;1.80;;;;;;;6.79;56.45;100946.78;5112538;28;42186;-84
2023/02/04 16:55:03;;;;;;;2.60;1.80;;;;;;;6.71;56.76;100953.88;5129591;27;39080;-84
2023/02/04 16:57:32;;;;;;;2.00;1.77;;;;;;;6.49;57.39;100947.16;5146881;27;41943;-84
2023/02/04 16:59:59;;;;;;;2.97;2.13;;;;;;;6.49;57.55;100965.59;5095439;28;41781;-86
2023/02/04 17:02:27;;;;;;;4.57;2.77;;;;;;;6.36;57.35;100967.50;5095300;28;42131;-86
2023/02/04 17:04:57;;;;;;;2.33;2.00;;;;;;;6.21;57.82;100961.53;5095535;28;38950;-84
2023/02/04 17:07:25;;;;;;;2.77;2.53;;;;;;;6.10;58.46;100957.25;5095378;28;40645;-85
2023/02/04 17:09:53;;;;;;;5.10;3.10;;;;;;;6.00;58.57;100952.13;5095388;28;42192;-83
2023/02/04 17:12:21;;;;;;;2.70;2.43;;;;;;;5.96;58.86;100953.91;5129399;27;41347;-84
2023/02/04 17:14:49;;;;;;;4.30;3.13;;;;;;;5.79;59.15;100947.94;5095024;28;38871;-83
2023/02/04 17:17:17;;;;;;;4.83;3.67;;;;;;;5.64;59.51;100937.53;5095365;28;40509;-83
2023/02/04 17:19:45;;;;;;;4.37;3.50;;;;;;;5.58;59.45;100953.34;5094875;28;41692;-86
2023/02/04 17:22:14;;;;;;;3.77;3.37;;;;;;;5.56;60.37;100957.78;5112542;28;42404;-85
2023/02/04 17:24:42;;;;;;;4.70;3.40;;;;;;;5.35;60.76;100936.03;5097911;28;39013;-85
2023/02/04 17:27:10;;;;;;;3.60;2.97;;;;;;;5.25;61.61;100931.72;5098357;28;41877;-83
2023/02/04 17:29:47;;;;;;;3.77;3.03;;;;;;;5.24;61.84;100943.13;5104598;28;41797;-85
2023/02/04 17:32:15;;;;;;;3.97;3.10;;;;;;;5.18;61.56;100953.69;5113225;28;42291;-86
2023/02/04 17:34:42;;;;;;;3.00;2.47;;;;;;;5.03;61.44;100938.03;5132800;27;38934;-84
2023/02/04 17:37:16;;;;;;;2.77;2.00;;;;;;;4.89;60.95;100937.25;5098114;28;40559;-84
2023/02/04 17:39:46;;;;;;;4.07;2.70;;;;;;;4.89;60.96;100945.13;5097211;28;41842;-83
2023/02/04 17:42:17;;;;;;;5.17;3.70;;;;;;;4.54;60.94;100905.94;5097968;28;43649;-85
2023/02/04 17:44:45;;;;;;;5.23;3.37;;;;;;;4.57;61.15;100930.44;5132527;27;41524;-87
2023/02/04 17:47:13;;;;;;;4.43;2.93;;;;;;;4.58;61.05;100940.03;5097929;28;41911;-83
2023/02/04 17:49:41;;;;;;;3.50;2.90;;;;;;;4.50;61.21;100935.69;5081526;28;42729;-83
2023/02/04 17:52:10;;;;;;;3.70;2.90;;;;;;;4.52;61.45;100955.81;5097965;28;41041;-82
2023/02/04 17:54:37;;;;;;;3.17;2.67;;;;;;;4.34;61.50;100933.13;5098385;28;38678;-83
2023/02/04 17:57:18;;;;;;;3.87;2.97;;;;;;;4.38;61.99;100946.25;5097752;28;40761;-83
2023/02/04 17:59:46;;;;;;;3.77;2.63;;;;;;;4.30;62.79;100948.91;5097900;28;41909;-82
2023/02/04 18:02:23;;;;;;;4.63;3.10;;;;;;;4.16;62.63;100935.84;5097448;28;43717;-83
2023/02/04 18:04:53;;;;;;;4.17;3.20;;;;;;;4.01;62.26;100920.16;5098190;28;39017;-83
2023/02/04 18:07:22;;;;;;;4.10;3.20;;;;;;;4.03;62.45;100933.25;5100922;28;41560;-84
2023/02/04 18:09:50;;;;;;;5.87;3.63;;;;;;;4.01;62.31;100946.38;5099258;28;41875;-85
2023/02/04 18:12:20;;;;;;;3.77;2.93;;;;;;;3.83;62.26;100923.69;5097594;28;42613;-84
2023/02/04 18:14:51;;;;;;;3.60;2.97;;;;;;;3.95;62.35;100957.75;5097888;28;40162;-84
2023/02/04 18:17:18;;;;;;;3.73;2.60;;;;;;;3.90;62.40;100962.13;5114472;28;41408;-85
2023/02/04 18:19:46;;;;;;;5.77;3.30;;;;;;;3.73;62.69;100942.91;5097931;28;43847;-82
2023/02/04 18:22:17;;;;;;;6.17;4.20;;;;;;;3.80;62.64;100963.03;5097447;28;41064;-83
2023/02/04 18:24:47;;;;;;;5.37;4.13;;;;;;;3.22;62.82;100879.22;5098144;28;38856;-85
2023/02/04 18:27:17;;;;;;;8.67;4.67;;;;;;;3.57;63.37;100949.06;5114356;28;41703;-84
2023/02/04 18:29:49;;;;;;;7.70;4.87;;;;;;;3.60;63.43;100954.28;5114339;28;41838;-83
2023/02/04 18:32:21;;;;;;;7.63;5.30;;;;;;;3.32;63.73;100921.13;5097177;28;41263;-82
2023/02/04 18:34:50;;;;;;;7.93;5.17;;;;;;;3.46;63.81;100945.59;5102336;28;38976;-82
2023/02/04 18:37:33;;;;;;;5.90;4.97;;;;;;;3.24;63.98;100924.63;5115785;28;42032;-83
2023/02/04 18:40:22;;;;;;;7.63;4.87;;;;;;;2.93;64.11;100880.09;5117379;28;41880;-82
2023/02/04 18:42:55;;;;;;;9.03;5.47;;;;;;;3.25;63.86;100957.78;5115491;28;41452;-82
2023/02/04 18:45:28;;;;;;;8.23;5.10;;;;;;;3.05;64.10;100928.09;5117513;28;40133;-82
2023/02/04 18:47:59;;;;;;;5.40;4.67;;;;;;;3.00;64.13;100932.44;5105125;28;42433;-84
2023/02/04 18:50:30;;;;;;;10.30;5.37;;;;;;;3.06;64.37;100950.78;5097367;28;42348;-83
2023/02/04 18:53:01;;;;;;;9.03;5.23;;;;;;;2.86;63.97;100926.31;5131330;27;42955;-85
2023/02/04 18:55:33;;;;;;;7.17;5.17;;;;;;;2.98;64.16;100955.13;5097699;28;40428;-83
2023/02/04 18:58:22;;;;;;;6.83;5.20;;;;;;;2.86;64.46;100953.34;5096822;28;41668;-84
2023/02/04 19:00:55;;;;;;;8.20;5.93;;;;;;;2.89;64.88;100955.13;5097046;28;41245;-83
2023/02/04 19:03:26;;;;;;;9.10;6.97;;;;;;;3.00;65.06;100971.72;5096628;28;42316;-83
2023/02/04 19:05:56;;;;;;;10.63;6.63;;;;;;;2.60;65.19;100901.88;5097459;28;38750;-82
2023/02/04 19:08:27;;;;;;;10.83;6.50;;;;;;;2.76;65.94;100914.09;5096675;28;40341;-84
2023/02/04 19:10:57;;;;;;;11.63;6.77;;;;;;;2.95;66.14;100947.28;5096974;28;41525;-86
2023/02/04 19:13:28;;;;;;;9.57;6.57;;;;;;;2.64;66.40;100906.22;5130802;27;41331;-82
2023/02/04 19:16:01;;;;;;;9.23;6.90;;;;;;;2.94;66.98;100957.75;5096934;28;40822;-82
2023/02/04 19:18:32;;;;;;;7.63;5.80;;;;;;;2.91;67.26;100950.75;5096681;28;40526;-84
2023/02/04 19:21:31;;;;;;;7.03;5.57;;;;;;;2.87;67.08;100956.84;5096878;28;43371;-82
2023/02/04 19:24:08;;;;;;;7.93;4.77;;;;;;;2.65;66.65;100931.50;5038499;28;43369;-84
2023/02/04 19:26:40;;;;;;;8.33;4.83;;;;;;;2.76;66.68;100966.41;5087313;28;40052;-84
2023/02/04 19:29:37;;;;;;;6.27;4.97;;;;;;;2.66;66.92;100969.88;5113475;28;42040;-84
2023/02/04 19:32:26;;;;;;;5.80;4.97;;;;;;;2.64;66.59;100976.84;5096441;28;41363;-83
2023/02/04 19:35:03;;;;;;;8.83;6.07;;;;;;;2.55;66.87;100976.81;5096648;28;42453;-84
2023/02/04 19:37:38;;;;;;;9.33;6.33;;;;;;;2.35;67.02;100954.06;5111570;28;39935;-84
2023/02/04 19:40:23;;;;;;;8.37;6.20;;;;;;;2.18;66.89;100940.06;5113338;28;41841;-81
2023/02/04 19:42:54;;;;;;;10.07;6.30;;;;;;;2.22;66.77;100962.75;5096143;28;41613;-83
2023/02/04 19:45:24;;;;;;;8.13;6.00;;;;;;;2.26;66.97;100974.94;5095558;28;41366;-85
2023/02/04 19:47:55;;;;;;;8.70;6.03;;;;;;;2.14;67.13;100970.53;5095846;28;39061;-83
2023/02/04 19:50:26;;;;;;;8.73;6.23;;;;;;;2.00;67.32;100960.84;5113479;28;42258;-83
2023/02/04 19:53:01;;;;;;;7.83;5.67;;;;;;;1.97;67.08;100971.31;5096616;28;42008;-85
2023/02/04 19:55:32;;;;;;;8.70;5.97;;;;;;;2.01;67.28;100988.72;5096423;28;42500;-85
2023/02/04 19:58:02;;;;;;;9.33;5.80;;;;;;;1.95;67.52;100988.72;5096331;28;39075;-85
2023/02/04 20:00:38;;;;;;;7.70;5.50;;;;;;;1.81;67.79;100970.31;5096038;28;41782;-83
2023/02/04 20:03:24;;;;;;;11.13;6.97;;;;;;;1.83;70.67;100962.50;5112834;28;42214;-86
2023/02/04 20:05:52;;;;;;;8.23;6.23;;;;;;;1.78;71.59;100963.34;5096315;28;41377;-84
2023/02/04 20:08:43;;;;;;;11.50;6.83;;;;;;;1.87;71.19;100985.16;5095773;28;40086;-84
2023/02/04 20:11:35;;;;;;;7.30;5.50;;;;;;;1.73;71.07;100954.59;5095860;28;40990;-84
2023/02/04 20:14:21;;;;;;;10.27;6.37;;;;;;;1.80;70.26;100974.69;5112931;28;43768;-85
2023/02/04 20:16:52;;;;;;;9.47;6.07;;;;;;;2.00;69.61;100997.44;5095768;28;42697;-84
2023/02/04 20:19:25;;;;;;;8.27;5.90;;;;;;;2.09;69.47;101002.75;5110174;28;40884;-83
2023/02/04 20:22:30;;;;;;;8.33;5.00;;;;;;;2.11;69.32;100990.53;5095711;28;40830;-84
2023/02/04 20:25:19;;;;;;;5.87;4.33;;;;;;;2.19;69.03;100994.09;5095869;28;43669;-84
2023/02/04 20:27:53;;;;;;;8.03;4.87;;;;;;;2.32;69.28;101005.47;5095466;28;41672;-83
2023/02/04 20:30:26;;;;;;;6.90;5.20;;;;;;;2.38;70.37;101009.00;5095740;28;39145;-83
2023/02/04 20:32:56;;;;;;;10.13;6.53;;;;;;;2.30;71.26;100987.16;5130045;27;40540;-83
2023/02/04 20:36:02;;;;;;;10.23;7.17;;;;;;;2.39;70.82;101002.03;5113749;28;42693;-82
2023/02/04 20:38:32;;;;;;;7.90;5.80;;;;;;;2.26;70.99;100990.63;5094792;28;42647;-83
2023/02/04 20:41:00;;;;;;;7.67;5.33;;;;;;;2.25;70.94;100988.00;5112332;28;39907;-84
2023/02/04 20:43:28;;;;;;;9.93;5.83;;;;;;;2.34;70.55;101015.09;5095186;28;41805;-86
2023/02/04 20:46:00;;;;;;;9.37;5.77;;;;;;;2.31;70.59;101008.97;5095384;28;41641;-83
2023/02/04 20:48:33;;;;;;;8.83;5.73;;;;;;;2.27;70.49;101023.75;5112720;28;42094;-84
2023/02/04 20:51:03;;;;;;;11.57;7.60;;;;;;;2.19;70.47;101015.00;5115200;28;38950;-83